Wednesday, September 19, 2018, 2:51 PM EDT
Back to Local

KDAA, Fort Belvoir

Location: Fort Belvoir, VA, United States Lat: 38.717
Local Time: 2:51 PM EDT (18:51 GMT) Lon: -77.183
Time Zone: US/Eastern Elev: 68 ft

Show me the last for .
Show Decoded

2018-09-19 13:56 METAR KDAA 191756Z AUTO 34006KT 10SM FEW040 30/23 A2993 RMK AO2 SLP138 T02960230
                 10300 20224 55003 TSNO $ =
2018-09-19 12:56 METAR KDAA 191656Z AUTO 35005KT 10SM FEW037 29/22 A2994 RMK AO2 SLP141 T02930220
                 TSNO $ =
2018-09-19 11:56 METAR KDAA 191556Z AUTO 32009KT 10SM FEW034 29/23 A2994 RMK AO2 SLP141 T02860226
                 TSNO $ =
2018-09-19 10:56 METAR KDAA 191456Z AUTO 32007KT 10SM FEW031 28/23 A2994 RMK AO2 SLP141 T02760225
                 51012 TSNO $ =
2018-09-19 09:56 METAR KDAA 191356Z AUTO 34009G14KT 10SM CLR 26/23 A2994 RMK AO2 SLP141 T02640230
                 TSNO $ =
2018-09-19 08:56 METAR KDAA 191256Z AUTO 35004KT 10SM CLR 25/23 A2992 RMK AO2 SLP135 T02490227
                 TSNO $ =
2018-09-19 07:56 METAR KDAA 191156Z AUTO 32006KT 10SM CLR 22/21 A2991 RMK AO2 SLP131 70020
                 T02230213 10223 20203 52015 TSNO $ =
2018-09-19 06:56 METAR KDAA 191056Z AUTO 30004KT 10SM CLR 20/20 A2989 RMK AO2 SLP124 T02040204
                 TSNO $ =
2018-09-19 05:56 METAR KDAA 190956Z AUTO 31004KT 10SM CLR 21/21 A2988 RMK AO2 SLP121 T02060206
                 TSNO $ =
2018-09-19 04:56 METAR KDAA 190856Z AUTO 32004KT 10SM CLR 21/21 A2986 RMK AO2 SLP114 T02090207
                 52004 TSNO $ =
2018-09-19 03:56 METAR KDAA 190756Z AUTO 29004KT 10SM CLR 21/21 A2986 RMK AO2 SLP114 T02110211
                 TSNO $ =
2018-09-19 02:56 METAR KDAA 190656Z AUTO 31006KT 10SM CLR 22/21 A2985 RMK AO2 SLP111 T02150211
                 TSNO $ =
2018-09-19 01:56 METAR KDAA 190556Z AUTO 31005KT 10SM CLR 22/21 A2985 RMK AO2 SLP111 T02180211
                 10227 20216 55000 TSNO $ =
2018-09-19 00:56 METAR KDAA 190456Z AUTO 32007KT 10SM CLR 23/21 A2984 RMK AO2 SLP107 T02250211
                 402860216 TSNO $ =
2018-09-18 23:56 METAR KDAA 190356Z AUTO 31003KT 10SM CLR 22/21 A2984 RMK AO2 SLP107 T02190210
                 TSNO $ =
2018-09-18 22:56 METAR KDAA 190256Z AUTO 31003KT 10SM CLR 22/21 A2985 RMK AO2 SLP111 T02170213
                 52012 TSNO $ =
2018-09-18 21:56 METAR KDAA 190156Z AUTO 00000KT 10SM CLR 22/ A2984 RMK AO2 SLP108 TSNO $ =
2018-09-18 20:56 METAR KDAA 190056Z COR 00000KT 10SM CLR 22/19 A2983 RMK AO2 SLP104 TSNO $ COR
                 0056 =
2018-09-18 19:56 METAR KDAA 182356Z COR 00000KT 10SM CLR 23/21 A2982 RMK AO2 SLP101 10281 20228
                 52014 TSNO $ COR 2357 =
2018-09-18 18:56 METAR KDAA 182256Z AUTO 00000KT 10SM CLR 25/25 A2980 RMK AO2 SLP094 T02500245
                 TSNO $ =
2018-09-18 17:56 METAR KDAA 182156Z AUTO 33003KT 10SM FEW055 28/24 A2979 RMK AO2 SLP091 T02760238
                 TSNO $ =
2018-09-18 16:56 METAR KDAA 182056Z AUTO 34003KT 10SM CLR 27/23 A2978 RMK AO2 SLP087 T02700230
                 50003 TSNO $ =
2018-09-18 15:56 METAR KDAA 181956Z AUTO 36009G16KT 10SM FEW027 SCT055 SCT080 27/23 A2976 RMK AO2
                 SLP080 T02740234 TSNO $ =
2018-09-18 14:56 METAR KDAA 181856Z AUTO 33012G17KT 10SM FEW070 26/23 A2977 RMK AO2 SLP084
                 T02620234 TSNO $ =

Support USWX by starting your Amazon purchase here.